sensor_id;sensor_type;location;lat;lon;timestamp;P1;durP1;ratioP1;P2;durP2;ratioP2
27412;SDS011;14871;52.702;5.230;2023-02-21T00:00:21;28.80;;;14.05;;
27412;SDS011;14871;52.702;5.230;2023-02-21T00:03:05;37.83;;;14.95;;
27412;SDS011;14871;52.702;5.230;2023-02-21T00:05:49;38.75;;;13.68;;
27412;SDS011;14871;52.702;5.230;2023-02-21T00:08:33;42.15;;;14.77;;
27412;SDS011;14871;52.702;5.230;2023-02-21T00:11:17;44.78;;;16.25;;
27412;SDS011;14871;52.702;5.230;2023-02-21T00:14:01;50.83;;;16.77;;
27412;SDS011;14871;52.702;5.230;2023-02-21T00:16:45;39.83;;;15.75;;
27412;SDS011;14871;52.702;5.230;2023-02-21T00:19:29;36.65;;;16.08;;
27412;SDS011;14871;52.702;5.230;2023-02-21T00:22:13;37.50;;;16.58;;
27412;SDS011;14871;52.702;5.230;2023-02-21T00:24:57;35.63;;;14.80;;
27412;SDS011;14871;52.702;5.230;2023-02-21T00:27:41;39.08;;;16.67;;
27412;SDS011;14871;52.702;5.230;2023-02-21T00:30:25;37.83;;;14.80;;
27412;SDS011;14871;52.702;5.230;2023-02-21T00:33:09;37.42;;;14.18;;
27412;SDS011;14871;52.702;5.230;2023-02-21T00:35:53;37.42;;;16.55;;
27412;SDS011;14871;52.702;5.230;2023-02-21T00:38:37;42.10;;;17.10;;
27412;SDS011;14871;52.702;5.230;2023-02-21T00:41:21;43.63;;;16.98;;
27412;SDS011;14871;52.702;5.230;2023-02-21T00:44:06;40.40;;;16.42;;
27412;SDS011;14871;52.702;5.230;2023-02-21T00:46:50;37.25;;;16.13;;
27412;SDS011;14871;52.702;5.230;2023-02-21T00:49:34;40.53;;;16.88;;
27412;SDS011;14871;52.702;5.230;2023-02-21T00:52:18;36.63;;;16.38;;
27412;SDS011;14871;52.702;5.230;2023-02-21T00:55:02;35.80;;;17.58;;
27412;SDS011;14871;52.702;5.230;2023-02-21T00:57:46;44.20;;;17.98;;
27412;SDS011;14871;52.702;5.230;2023-02-21T01:00:30;41.60;;;17.45;;
27412;SDS011;14871;52.702;5.230;2023-02-21T01:03:14;37.75;;;16.85;;
27412;SDS011;14871;52.702;5.230;2023-02-21T01:05:58;39.72;;;16.10;;
27412;SDS011;14871;52.702;5.230;2023-02-21T01:08:43;39.53;;;17.75;;
27412;SDS011;14871;52.702;5.230;2023-02-21T01:11:29;37.05;;;18.92;;
27412;SDS011;14871;52.702;5.230;2023-02-21T01:14:14;35.92;;;17.45;;
27412;SDS011;14871;52.702;5.230;2023-02-21T01:16:59;46.22;;;18.40;;
27412;SDS011;14871;52.702;5.230;2023-02-21T01:19:43;46.40;;;19.50;;
27412;SDS011;14871;52.702;5.230;2023-02-21T01:22:28;39.47;;;18.65;;
27412;SDS011;14871;52.702;5.230;2023-02-21T01:25:13;40.85;;;18.70;;
27412;SDS011;14871;52.702;5.230;2023-02-21T01:27:57;38.33;;;19.40;;
27412;SDS011;14871;52.702;5.230;2023-02-21T01:30:41;36.60;;;19.25;;
27412;SDS011;14871;52.702;5.230;2023-02-21T01:33:25;40.63;;;20.27;;
27412;SDS011;14871;52.702;5.230;2023-02-21T01:36:10;40.55;;;20.30;;
27412;SDS011;14871;52.702;5.230;2023-02-21T01:38:54;30.42;;;16.33;;
27412;SDS011;14871;52.702;5.230;2023-02-21T01:41:38;39.50;;;20.55;;
27412;SDS011;14871;52.702;5.230;2023-02-21T01:44:36;46.58;;;22.20;;
27412;SDS011;14871;52.702;5.230;2023-02-21T01:47:23;40.67;;;19.42;;
27412;SDS011;14871;52.702;5.230;2023-02-21T01:50:29;39.30;;;19.43;;
27412;SDS011;14871;52.702;5.230;2023-02-21T01:53:22;43.13;;;21.60;;
27412;SDS011;14871;52.702;5.230;2023-02-21T01:56:08;43.47;;;20.25;;
27412;SDS011;14871;52.702;5.230;2023-02-21T02:01:48;38.83;;;19.65;;
27412;SDS011;14871;52.702;5.230;2023-02-21T02:04:36;39.08;;;21.45;;
27412;SDS011;14871;52.702;5.230;2023-02-21T02:07:21;43.45;;;20.20;;
27412;SDS011;14871;52.702;5.230;2023-02-21T02:10:05;47.17;;;22.88;;
27412;SDS011;14871;52.702;5.230;2023-02-21T02:12:55;37.17;;;20.10;;
27412;SDS011;14871;52.702;5.230;2023-02-21T02:18:48;40.05;;;21.92;;
27412;SDS011;14871;52.702;5.230;2023-02-21T02:36:01;40.92;;;23.73;;
27412;SDS011;14871;52.702;5.230;2023-02-21T02:41:10;50.20;;;23.15;;
27412;SDS011;14871;52.702;5.230;2023-02-21T02:44:00;35.47;;;20.63;;
27412;SDS011;14871;52.702;5.230;2023-02-21T02:46:47;47.13;;;22.52;;
27412;SDS011;14871;52.702;5.230;2023-02-21T02:49:18;41.97;;;19.95;;
27412;SDS011;14871;52.702;5.230;2023-02-21T02:51:51;40.25;;;23.60;;
27412;SDS011;14871;52.702;5.230;2023-02-21T02:54:17;39.45;;;22.63;;
27412;SDS011;14871;52.702;5.230;2023-02-21T02:56:43;44.92;;;22.13;;
27412;SDS011;14871;52.702;5.230;2023-02-21T02:59:11;39.22;;;23.13;;
27412;SDS011;14871;52.702;5.230;2023-02-21T03:09:58;42.97;;;23.65;;
27412;SDS011;14871;52.702;5.230;2023-02-21T03:15:17;42.42;;;22.80;;
27412;SDS011;14871;52.702;5.230;2023-02-21T03:17:48;41.35;;;22.52;;
27412;SDS011;14871;52.702;5.230;2023-02-21T03:20:45;42.97;;;22.00;;
27412;SDS011;14871;52.702;5.230;2023-02-21T03:23:17;43.75;;;23.90;;
27412;SDS011;14871;52.702;5.230;2023-02-21T03:25:45;51.20;;;23.13;;
27412;SDS011;14871;52.702;5.230;2023-02-21T03:28:14;47.45;;;23.73;;
27412;SDS011;14871;52.702;5.230;2023-02-21T03:30:40;38.00;;;22.38;;
27412;SDS011;14871;52.702;5.230;2023-02-21T03:33:06;43.60;;;23.15;;
27412;SDS011;14871;52.702;5.230;2023-02-21T03:35:32;38.42;;;21.70;;
27412;SDS011;14871;52.702;5.230;2023-02-21T03:37:58;47.33;;;22.45;;
27412;SDS011;14871;52.702;5.230;2023-02-21T03:40:30;44.22;;;23.08;;
27412;SDS011;14871;52.702;5.230;2023-02-21T03:42:58;37.90;;;23.13;;
27412;SDS011;14871;52.702;5.230;2023-02-21T03:45:25;43.15;;;22.80;;
27412;SDS011;14871;52.702;5.230;2023-02-21T03:47:51;41.38;;;22.85;;
27412;SDS011;14871;52.702;5.230;2023-02-21T03:50:16;42.67;;;23.92;;
27412;SDS011;14871;52.702;5.230;2023-02-21T03:52:42;42.30;;;23.67;;
27412;SDS011;14871;52.702;5.230;2023-02-21T03:55:08;42.35;;;23.20;;
27412;SDS011;14871;52.702;5.230;2023-02-21T03:57:34;43.83;;;23.88;;
27412;SDS011;14871;52.702;5.230;2023-02-21T03:59:59;41.03;;;22.80;;
27412;SDS011;14871;52.702;5.230;2023-02-21T04:02:25;40.63;;;23.38;;
27412;SDS011;14871;52.702;5.230;2023-02-21T04:04:51;37.28;;;22.77;;
27412;SDS011;14871;52.702;5.230;2023-02-21T04:07:17;38.75;;;23.05;;
27412;SDS011;14871;52.702;5.230;2023-02-21T04:09:44;33.17;;;23.38;;
27412;SDS011;14871;52.702;5.230;2023-02-21T04:12:10;40.35;;;23.27;;
27412;SDS011;14871;52.702;5.230;2023-02-21T04:14:36;44.53;;;24.13;;
27412;SDS011;14871;52.702;5.230;2023-02-21T04:17:02;42.42;;;23.35;;
27412;SDS011;14871;52.702;5.230;2023-02-21T04:19:27;47.53;;;23.75;;
27412;SDS011;14871;52.702;5.230;2023-02-21T04:21:53;38.75;;;22.55;;
27412;SDS011;14871;52.702;5.230;2023-02-21T04:24:18;36.83;;;23.85;;
27412;SDS011;14871;52.702;5.230;2023-02-21T04:26:44;36.03;;;23.85;;
27412;SDS011;14871;52.702;5.230;2023-02-21T04:29:10;39.13;;;24.90;;
27412;SDS011;14871;52.702;5.230;2023-02-21T04:31:36;33.65;;;23.48;;
27412;SDS011;14871;52.702;5.230;2023-02-21T04:34:01;35.92;;;23.83;;
27412;SDS011;14871;52.702;5.230;2023-02-21T04:36:27;38.78;;;23.92;;
27412;SDS011;14871;52.702;5.230;2023-02-21T04:38:53;42.63;;;26.05;;
27412;SDS011;14871;52.702;5.230;2023-02-21T04:41:18;41.53;;;24.63;;
27412;SDS011;14871;52.702;5.230;2023-02-21T04:43:44;40.10;;;24.90;;
27412;SDS011;14871;52.702;5.230;2023-02-21T04:46:10;47.38;;;24.88;;
27412;SDS011;14871;52.702;5.230;2023-02-21T04:48:43;44.70;;;25.35;;
27412;SDS011;14871;52.702;5.230;2023-02-21T04:51:11;41.95;;;24.92;;
27412;SDS011;14871;52.702;5.230;2023-02-21T04:53:38;50.13;;;25.75;;
27412;SDS011;14871;52.702;5.230;2023-02-21T04:56:04;42.80;;;24.60;;
27412;SDS011;14871;52.702;5.230;2023-02-21T04:58:30;51.72;;;28.83;;
27412;SDS011;14871;52.702;5.230;2023-02-21T05:00:56;43.60;;;25.55;;
27412;SDS011;14871;52.702;5.230;2023-02-21T05:03:21;46.97;;;24.70;;
27412;SDS011;14871;52.702;5.230;2023-02-21T05:05:48;41.45;;;24.48;;
27412;SDS011;14871;52.702;5.230;2023-02-21T05:08:14;39.30;;;25.33;;
27412;SDS011;14871;52.702;5.230;2023-02-21T05:10:40;38.22;;;24.52;;
27412;SDS011;14871;52.702;5.230;2023-02-21T05:13:05;43.60;;;25.02;;
27412;SDS011;14871;52.702;5.230;2023-02-21T05:15:31;46.97;;;25.00;;
27412;SDS011;14871;52.702;5.230;2023-02-21T05:17:56;43.38;;;24.30;;
27412;SDS011;14871;52.702;5.230;2023-02-21T05:20:22;43.85;;;24.73;;
27412;SDS011;14871;52.702;5.230;2023-02-21T05:22:48;44.63;;;24.55;;
27412;SDS011;14871;52.702;5.230;2023-02-21T05:25:15;39.13;;;23.90;;
27412;SDS011;14871;52.702;5.230;2023-02-21T05:27:41;39.78;;;24.05;;
27412;SDS011;14871;52.702;5.230;2023-02-21T05:30:07;38.65;;;24.25;;
27412;SDS011;14871;52.702;5.230;2023-02-21T05:32:33;37.35;;;23.42;;
27412;SDS011;14871;52.702;5.230;2023-02-21T05:34:59;38.70;;;24.23;;
27412;SDS011;14871;52.702;5.230;2023-02-21T05:37:24;37.55;;;24.25;;
27412;SDS011;14871;52.702;5.230;2023-02-21T05:39:50;42.55;;;24.45;;
27412;SDS011;14871;52.702;5.230;2023-02-21T05:42:16;41.33;;;24.42;;
27412;SDS011;14871;52.702;5.230;2023-02-21T05:44:45;42.45;;;23.92;;
27412;SDS011;14871;52.702;5.230;2023-02-21T05:47:12;40.17;;;23.58;;
27412;SDS011;14871;52.702;5.230;2023-02-21T05:49:38;40.38;;;23.02;;
27412;SDS011;14871;52.702;5.230;2023-02-21T05:52:04;38.63;;;25.67;;
27412;SDS011;14871;52.702;5.230;2023-02-21T05:54:30;41.33;;;23.08;;
27412;SDS011;14871;52.702;5.230;2023-02-21T05:56:56;41.47;;;24.58;;
27412;SDS011;14871;52.702;5.230;2023-02-21T05:59:22;42.30;;;25.25;;
27412;SDS011;14871;52.702;5.230;2023-02-21T06:01:48;39.53;;;24.00;;
27412;SDS011;14871;52.702;5.230;2023-02-21T06:04:14;41.42;;;25.35;;
27412;SDS011;14871;52.702;5.230;2023-02-21T06:06:40;40.58;;;24.88;;
27412;SDS011;14871;52.702;5.230;2023-02-21T06:09:06;44.78;;;25.98;;
27412;SDS011;14871;52.702;5.230;2023-02-21T06:11:33;42.67;;;24.27;;
27412;SDS011;14871;52.702;5.230;2023-02-21T06:14:02;46.83;;;27.13;;
27412;SDS011;14871;52.702;5.230;2023-02-21T06:16:33;47.35;;;24.90;;
27412;SDS011;14871;52.702;5.230;2023-02-21T06:19:00;47.28;;;28.40;;
27412;SDS011;14871;52.702;5.230;2023-02-21T06:21:26;46.47;;;27.27;;
27412;SDS011;14871;52.702;5.230;2023-02-21T06:23:52;52.28;;;27.10;;
27412;SDS011;14871;52.702;5.230;2023-02-21T06:26:18;42.55;;;26.30;;
27412;SDS011;14871;52.702;5.230;2023-02-21T06:28:45;43.45;;;26.63;;
27412;SDS011;14871;52.702;5.230;2023-02-21T06:31:11;43.80;;;25.50;;
27412;SDS011;14871;52.702;5.230;2023-02-21T06:33:37;45.83;;;27.88;;
27412;SDS011;14871;52.702;5.230;2023-02-21T06:36:07;46.60;;;26.98;;
27412;SDS011;14871;52.702;5.230;2023-02-21T06:38:35;44.10;;;27.55;;
27412;SDS011;14871;52.702;5.230;2023-02-21T06:41:05;49.55;;;28.30;;
27412;SDS011;14871;52.702;5.230;2023-02-21T06:43:32;50.28;;;30.15;;
27412;SDS011;14871;52.702;5.230;2023-02-21T06:45:58;49.95;;;28.52;;
27412;SDS011;14871;52.702;5.230;2023-02-21T06:48:23;49.22;;;29.35;;
27412;SDS011;14871;52.702;5.230;2023-02-21T06:50:49;49.15;;;28.75;;
27412;SDS011;14871;52.702;5.230;2023-02-21T06:53:14;51.55;;;29.75;;
27412;SDS011;14871;52.702;5.230;2023-02-21T06:55:40;50.97;;;29.25;;
27412;SDS011;14871;52.702;5.230;2023-02-21T06:58:06;51.28;;;29.25;;
27412;SDS011;14871;52.702;5.230;2023-02-21T07:00:31;55.50;;;30.58;;
27412;SDS011;14871;52.702;5.230;2023-02-21T07:02:57;49.90;;;30.33;;
27412;SDS011;14871;52.702;5.230;2023-02-21T07:05:23;57.28;;;31.98;;
27412;SDS011;14871;52.702;5.230;2023-02-21T07:07:49;54.83;;;30.35;;
27412;SDS011;14871;52.702;5.230;2023-02-21T07:10:14;56.75;;;31.23;;
27412;SDS011;14871;52.702;5.230;2023-02-21T07:12:40;51.65;;;30.13;;
27412;SDS011;14871;52.702;5.230;2023-02-21T07:15:06;52.90;;;28.83;;
27412;SDS011;14871;52.702;5.230;2023-02-21T07:17:32;58.63;;;31.40;;
27412;SDS011;14871;52.702;5.230;2023-02-21T07:19:57;50.42;;;30.92;;
27412;SDS011;14871;52.702;5.230;2023-02-21T07:22:23;54.72;;;30.10;;
27412;SDS011;14871;52.702;5.230;2023-02-21T07:24:53;55.65;;;30.83;;
27412;SDS011;14871;52.702;5.230;2023-02-21T07:27:19;50.40;;;29.13;;
27412;SDS011;14871;52.702;5.230;2023-02-21T07:29:49;55.15;;;31.73;;
27412;SDS011;14871;52.702;5.230;2023-02-21T07:32:15;52.90;;;28.88;;
27412;SDS011;14871;52.702;5.230;2023-02-21T07:34:41;55.30;;;30.20;;
27412;SDS011;14871;52.702;5.230;2023-02-21T07:37:07;52.63;;;30.95;;
27412;SDS011;14871;52.702;5.230;2023-02-21T07:39:33;50.33;;;28.67;;
27412;SDS011;14871;52.702;5.230;2023-02-21T07:41:59;54.92;;;29.48;;
27412;SDS011;14871;52.702;5.230;2023-02-21T07:44:24;54.40;;;30.42;;
27412;SDS011;14871;52.702;5.230;2023-02-21T07:46:50;56.90;;;30.73;;
27412;SDS011;14871;52.702;5.230;2023-02-21T07:49:16;54.17;;;32.45;;
27412;SDS011;14871;52.702;5.230;2023-02-21T07:51:41;49.25;;;28.65;;
27412;SDS011;14871;52.702;5.230;2023-02-21T07:54:07;51.10;;;31.77;;
27412;SDS011;14871;52.702;5.230;2023-02-21T07:56:32;54.80;;;30.65;;
27412;SDS011;14871;52.702;5.230;2023-02-21T07:58:58;58.80;;;32.08;;
27412;SDS011;14871;52.702;5.230;2023-02-21T08:01:24;54.05;;;30.20;;
27412;SDS011;14871;52.702;5.230;2023-02-21T08:03:50;57.13;;;31.17;;
27412;SDS011;14871;52.702;5.230;2023-02-21T08:06:16;48.20;;;30.40;;
27412;SDS011;14871;52.702;5.230;2023-02-21T08:08:43;56.47;;;32.20;;
27412;SDS011;14871;52.702;5.230;2023-02-21T08:11:09;52.70;;;31.20;;
27412;SDS011;14871;52.702;5.230;2023-02-21T08:13:34;50.55;;;31.55;;
27412;SDS011;14871;52.702;5.230;2023-02-21T08:16:01;53.00;;;31.48;;
27412;SDS011;14871;52.702;5.230;2023-02-21T08:18:26;52.25;;;29.05;;
27412;SDS011;14871;52.702;5.230;2023-02-21T08:20:52;59.53;;;32.25;;
27412;SDS011;14871;52.702;5.230;2023-02-21T08:23:19;51.55;;;32.33;;
27412;SDS011;14871;52.702;5.230;2023-02-21T08:25:45;55.15;;;30.95;;
27412;SDS011;14871;52.702;5.230;2023-02-21T08:28:12;54.45;;;33.65;;
27412;SDS011;14871;52.702;5.230;2023-02-21T08:30:38;52.35;;;31.67;;
27412;SDS011;14871;52.702;5.230;2023-02-21T08:33:04;54.88;;;30.55;;
27412;SDS011;14871;52.702;5.230;2023-02-21T08:35:30;50.65;;;30.80;;
27412;SDS011;14871;52.702;5.230;2023-02-21T08:37:55;58.05;;;31.15;;
27412;SDS011;14871;52.702;5.230;2023-02-21T08:40:26;48.78;;;30.85;;
27412;SDS011;14871;52.702;5.230;2023-02-21T08:42:53;49.03;;;30.55;;
27412;SDS011;14871;52.702;5.230;2023-02-21T08:45:20;54.72;;;31.30;;
27412;SDS011;14871;52.702;5.230;2023-02-21T08:47:47;50.40;;;30.75;;
27412;SDS011;14871;52.702;5.230;2023-02-21T08:50:13;50.72;;;30.38;;
27412;SDS011;14871;52.702;5.230;2023-02-21T08:52:39;50.22;;;30.55;;
27412;SDS011;14871;52.702;5.230;2023-02-21T08:55:05;58.10;;;33.97;;
27412;SDS011;14871;52.702;5.230;2023-02-21T08:57:31;49.90;;;31.15;;
27412;SDS011;14871;52.702;5.230;2023-02-21T08:59:58;51.90;;;30.83;;
27412;SDS011;14871;52.702;5.230;2023-02-21T09:02:24;47.80;;;28.40;;
27412;SDS011;14871;52.702;5.230;2023-02-21T09:04:51;51.92;;;29.63;;
27412;SDS011;14871;52.702;5.230;2023-02-21T09:07:18;51.08;;;30.10;;
27412;SDS011;14871;52.702;5.230;2023-02-21T09:09:45;48.22;;;30.90;;
27412;SDS011;14871;52.702;5.230;2023-02-21T09:12:11;50.33;;;29.52;;
27412;SDS011;14871;52.702;5.230;2023-02-21T09:14:37;48.85;;;29.73;;
27412;SDS011;14871;52.702;5.230;2023-02-21T09:17:05;47.03;;;27.85;;
27412;SDS011;14871;52.702;5.230;2023-02-21T09:19:32;44.88;;;29.20;;
27412;SDS011;14871;52.702;5.230;2023-02-21T09:21:58;42.65;;;28.17;;
27412;SDS011;14871;52.702;5.230;2023-02-21T09:24:25;49.60;;;29.42;;
27412;SDS011;14871;52.702;5.230;2023-02-21T09:26:55;48.33;;;30.20;;
27412;SDS011;14871;52.702;5.230;2023-02-21T09:29:30;47.60;;;29.33;;
27412;SDS011;14871;52.702;5.230;2023-02-21T09:31:58;45.10;;;28.50;;
27412;SDS011;14871;52.702;5.230;2023-02-21T09:34:24;44.47;;;28.40;;
27412;SDS011;14871;52.702;5.230;2023-02-21T09:36:50;46.60;;;30.58;;
27412;SDS011;14871;52.702;5.230;2023-02-21T09:39:18;46.15;;;29.13;;
27412;SDS011;14871;52.702;5.230;2023-02-21T09:41:44;49.67;;;29.48;;
27412;SDS011;14871;52.702;5.230;2023-02-21T09:44:14;49.55;;;29.98;;
27412;SDS011;14871;52.702;5.230;2023-02-21T09:46:47;48.78;;;29.90;;
27412;SDS011;14871;52.702;5.230;2023-02-21T09:51:50;50.25;;;30.13;;
27412;SDS011;14871;52.702;5.230;2023-02-21T09:54:18;44.80;;;29.45;;
27412;SDS011;14871;52.702;5.230;2023-02-21T09:56:50;48.20;;;29.73;;
27412;SDS011;14871;52.702;5.230;2023-02-21T09:59:16;45.20;;;27.92;;
27412;SDS011;14871;52.702;5.230;2023-02-21T10:04:42;46.03;;;26.90;;
27412;SDS011;14871;52.702;5.230;2023-02-21T10:07:16;44.03;;;29.50;;
27412;SDS011;14871;52.702;5.230;2023-02-21T10:09:55;41.75;;;26.67;;
27412;SDS011;14871;52.702;5.230;2023-02-21T10:15:22;45.03;;;27.75;;
27412;SDS011;14871;52.702;5.230;2023-02-21T10:20:58;43.00;;;27.63;;
27412;SDS011;14871;52.702;5.230;2023-02-21T10:23:43;44.42;;;27.35;;
27412;SDS011;14871;52.702;5.230;2023-02-21T10:26:14;37.97;;;27.00;;
27412;SDS011;14871;52.702;5.230;2023-02-21T10:28:49;39.80;;;25.75;;
27412;SDS011;14871;52.702;5.230;2023-02-21T10:31:35;40.60;;;26.15;;
27412;SDS011;14871;52.702;5.230;2023-02-21T10:34:03;43.95;;;24.95;;
27412;SDS011;14871;52.702;5.230;2023-02-21T10:36:31;39.08;;;25.63;;
27412;SDS011;14871;52.702;5.230;2023-02-21T10:39:18;41.80;;;25.40;;
27412;SDS011;14871;52.702;5.230;2023-02-21T10:41:56;38.65;;;24.55;;
27412;SDS011;14871;52.702;5.230;2023-02-21T10:44:25;37.22;;;25.17;;
27412;SDS011;14871;52.702;5.230;2023-02-21T10:49:37;37.97;;;25.05;;
27412;SDS011;14871;52.702;5.230;2023-02-21T10:52:14;36.22;;;23.92;;
27412;SDS011;14871;52.702;5.230;2023-02-21T10:54:47;37.70;;;24.45;;
27412;SDS011;14871;52.702;5.230;2023-02-21T10:57:32;36.08;;;24.55;;
27412;SDS011;14871;52.702;5.230;2023-02-21T11:00:02;39.13;;;24.55;;
27412;SDS011;14871;52.702;5.230;2023-02-21T11:02:35;34.28;;;23.52;;
27412;SDS011;14871;52.702;5.230;2023-02-21T11:05:09;41.03;;;25.25;;
27412;SDS011;14871;52.702;5.230;2023-02-21T11:07:57;35.83;;;24.38;;
27412;SDS011;14871;52.702;5.230;2023-02-21T11:10:26;33.50;;;22.63;;
27412;SDS011;14871;52.702;5.230;2023-02-21T11:15:37;35.72;;;23.75;;
27412;SDS011;14871;52.702;5.230;2023-02-21T11:20:40;35.10;;;22.83;;
27412;SDS011;14871;52.702;5.230;2023-02-21T11:23:19;35.15;;;23.50;;
27412;SDS011;14871;52.702;5.230;2023-02-21T11:25:56;31.20;;;22.13;;
27412;SDS011;14871;52.702;5.230;2023-02-21T11:28:29;29.13;;;21.90;;
27412;SDS011;14871;52.702;5.230;2023-02-21T11:33:23;27.85;;;20.48;;
27412;SDS011;14871;52.702;5.230;2023-02-21T11:35:50;27.50;;;20.10;;
27412;SDS011;14871;52.702;5.230;2023-02-21T11:41:26;28.30;;;20.48;;
27412;SDS011;14871;52.702;5.230;2023-02-21T11:43:52;25.42;;;17.90;;
27412;SDS011;14871;52.702;5.230;2023-02-21T11:53:55;33.58;;;19.60;;
27412;SDS011;14871;52.702;5.230;2023-02-21T11:56:30;28.15;;;19.30;;
27412;SDS011;14871;52.702;5.230;2023-02-21T11:59:25;26.30;;;19.73;;
27412;SDS011;14871;52.702;5.230;2023-02-21T12:07:41;23.13;;;17.15;;
27412;SDS011;14871;52.702;5.230;2023-02-21T12:29:11;22.77;;;16.70;;
27412;SDS011;14871;52.702;5.230;2023-02-21T12:35:00;22.27;;;16.70;;
27412;SDS011;14871;52.702;5.230;2023-02-21T12:37:34;21.60;;;16.40;;
27412;SDS011;14871;52.702;5.230;2023-02-21T12:40:19;20.17;;;15.80;;
27412;SDS011;14871;52.702;5.230;2023-02-21T12:42:55;20.83;;;16.35;;
27412;SDS011;14871;52.702;5.230;2023-02-21T12:45:33;18.75;;;16.13;;
27412;SDS011;14871;52.702;5.230;2023-02-21T12:51:00;21.83;;;16.67;;
27412;SDS011;14871;52.702;5.230;2023-02-21T12:53:34;20.02;;;16.13;;
27412;SDS011;14871;52.702;5.230;2023-02-21T12:58:47;18.15;;;15.23;;
27412;SDS011;14871;52.702;5.230;2023-02-21T13:01:33;24.00;;;17.23;;
27412;SDS011;14871;52.702;5.230;2023-02-21T13:06:47;17.83;;;15.93;;
27412;SDS011;14871;52.702;5.230;2023-02-21T13:09:50;22.10;;;16.95;;
27412;SDS011;14871;52.702;5.230;2023-02-21T13:12:31;22.60;;;17.30;;
27412;SDS011;14871;52.702;5.230;2023-02-21T13:15:29;21.48;;;16.60;;
27412;SDS011;14871;52.702;5.230;2023-02-21T13:20:34;21.85;;;17.98;;
27412;SDS011;14871;52.702;5.230;2023-02-21T13:23:04;24.75;;;18.85;;
27412;SDS011;14871;52.702;5.230;2023-02-21T13:28:52;21.02;;;18.13;;
27412;SDS011;14871;52.702;5.230;2023-02-21T13:31:20;22.60;;;19.05;;
27412;SDS011;14871;52.702;5.230;2023-02-21T13:33:53;23.17;;;18.52;;
27412;SDS011;14871;52.702;5.230;2023-02-21T13:39:16;27.77;;;20.83;;
27412;SDS011;14871;52.702;5.230;2023-02-21T13:44:24;29.95;;;21.63;;
27412;SDS011;14871;52.702;5.230;2023-02-21T13:57:36;31.27;;;22.30;;
27412;SDS011;14871;52.702;5.230;2023-02-21T14:00:50;30.27;;;21.35;;
27412;SDS011;14871;52.702;5.230;2023-02-21T14:02:56;28.40;;;21.25;;
27412;SDS011;14871;52.702;5.230;2023-02-21T14:10:32;26.50;;;20.55;;
27412;SDS011;14871;52.702;5.230;2023-02-21T14:21:03;26.67;;;19.55;;
27412;SDS011;14871;52.702;5.230;2023-02-21T14:23:41;32.22;;;20.75;;
27412;SDS011;14871;52.702;5.230;2023-02-21T14:26:33;27.85;;;20.33;;
27412;SDS011;14871;52.702;5.230;2023-02-21T14:31:54;25.90;;;19.75;;
27412;SDS011;14871;52.702;5.230;2023-02-21T14:37:15;27.42;;;19.80;;
27412;SDS011;14871;52.702;5.230;2023-02-21T14:39:45;31.48;;;22.10;;
27412;SDS011;14871;52.702;5.230;2023-02-21T14:59:04;45.88;;;30.52;;
27412;SDS011;14871;52.702;5.230;2023-02-21T15:01:43;54.03;;;38.15;;
27412;SDS011;14871;52.702;5.230;2023-02-21T15:07:02;45.90;;;29.17;;
27412;SDS011;14871;52.702;5.230;2023-02-21T15:09:28;48.22;;;30.50;;
27412;SDS011;14871;52.702;5.230;2023-02-21T15:11:54;44.58;;;29.92;;
27412;SDS011;14871;52.702;5.230;2023-02-21T15:14:27;41.95;;;27.60;;
27412;SDS011;14871;52.702;5.230;2023-02-21T15:16:56;39.38;;;26.63;;
27412;SDS011;14871;52.702;5.230;2023-02-21T15:19:31;42.58;;;26.33;;
27412;SDS011;14871;52.702;5.230;2023-02-21T15:22:14;43.50;;;26.47;;
27412;SDS011;14871;52.702;5.230;2023-02-21T15:27:32;40.95;;;27.75;;
27412;SDS011;14871;52.702;5.230;2023-02-21T15:30:03;44.65;;;27.70;;
27412;SDS011;14871;52.702;5.230;2023-02-21T15:32:37;42.08;;;26.80;;
27412;SDS011;14871;52.702;5.230;2023-02-21T15:35:03;39.83;;;25.88;;
27412;SDS011;14871;52.702;5.230;2023-02-21T15:37:33;39.88;;;26.52;;
27412;SDS011;14871;52.702;5.230;2023-02-21T15:40:03;40.00;;;24.98;;
27412;SDS011;14871;52.702;5.230;2023-02-21T15:42:38;37.63;;;24.02;;
27412;SDS011;14871;52.702;5.230;2023-02-21T15:45:06;35.53;;;24.20;;
27412;SDS011;14871;52.702;5.230;2023-02-21T15:47:41;37.85;;;24.23;;
27412;SDS011;14871;52.702;5.230;2023-02-21T15:50:09;35.40;;;23.52;;
27412;SDS011;14871;52.702;5.230;2023-02-21T15:52:56;36.40;;;23.67;;
27412;SDS011;14871;52.702;5.230;2023-02-21T15:55:45;47.03;;;30.95;;
27412;SDS011;14871;52.702;5.230;2023-02-21T15:58:14;41.70;;;25.45;;
27412;SDS011;14871;52.702;5.230;2023-02-21T16:00:40;38.35;;;24.05;;
27412;SDS011;14871;52.702;5.230;2023-02-21T16:03:30;39.72;;;25.02;;
27412;SDS011;14871;52.702;5.230;2023-02-21T16:08:55;36.17;;;22.30;;
27412;SDS011;14871;52.702;5.230;2023-02-21T16:11:24;34.17;;;21.33;;
27412;SDS011;14871;52.702;5.230;2023-02-21T16:14:01;31.33;;;19.33;;
27412;SDS011;14871;52.702;5.230;2023-02-21T16:16:31;27.70;;;19.90;;
27412;SDS011;14871;52.702;5.230;2023-02-21T16:18:58;32.38;;;18.98;;
27412;SDS011;14871;52.702;5.230;2023-02-21T16:21:25;31.73;;;19.38;;
27412;SDS011;14871;52.702;5.230;2023-02-21T16:23:53;34.17;;;20.83;;
27412;SDS011;14871;52.702;5.230;2023-02-21T16:26:23;37.08;;;22.13;;
27412;SDS011;14871;52.702;5.230;2023-02-21T16:28:53;35.35;;;21.20;;
27412;SDS011;14871;52.702;5.230;2023-02-21T16:31:26;36.13;;;22.48;;
27412;SDS011;14871;52.702;5.230;2023-02-21T16:33:56;57.53;;;31.33;;
27412;SDS011;14871;52.702;5.230;2023-02-21T16:36:23;41.78;;;25.67;;
27412;SDS011;14871;52.702;5.230;2023-02-21T16:38:55;44.92;;;25.80;;
27412;SDS011;14871;52.702;5.230;2023-02-21T16:41:22;46.95;;;27.45;;
27412;SDS011;14871;52.702;5.230;2023-02-21T16:43:47;45.38;;;27.50;;
27412;SDS011;14871;52.702;5.230;2023-02-21T16:46:14;47.28;;;27.20;;
27412;SDS011;14871;52.702;5.230;2023-02-21T16:48:40;46.13;;;27.58;;
27412;SDS011;14871;52.702;5.230;2023-02-21T16:51:06;53.90;;;28.55;;
27412;SDS011;14871;52.702;5.230;2023-02-21T16:53:37;50.00;;;28.13;;
27412;SDS011;14871;52.702;5.230;2023-02-21T16:56:03;48.40;;;30.55;;
27412;SDS011;14871;52.702;5.230;2023-02-21T16:58:31;48.03;;;28.42;;
27412;SDS011;14871;52.702;5.230;2023-02-21T17:01:00;49.92;;;28.30;;
27412;SDS011;14871;52.702;5.230;2023-02-21T17:03:37;45.55;;;29.15;;
27412;SDS011;14871;52.702;5.230;2023-02-21T17:06:05;44.78;;;27.25;;
27412;SDS011;14871;52.702;5.230;2023-02-21T17:08:31;45.97;;;28.95;;
27412;SDS011;14871;52.702;5.230;2023-02-21T17:10:56;50.30;;;30.10;;
27412;SDS011;14871;52.702;5.230;2023-02-21T17:13:23;45.05;;;28.83;;
27412;SDS011;14871;52.702;5.230;2023-02-21T17:15:49;48.92;;;29.48;;
27412;SDS011;14871;52.702;5.230;2023-02-21T17:18:14;45.20;;;28.58;;
27412;SDS011;14871;52.702;5.230;2023-02-21T17:20:40;44.80;;;29.42;;
27412;SDS011;14871;52.702;5.230;2023-02-21T17:23:06;42.90;;;26.73;;
27412;SDS011;14871;52.702;5.230;2023-02-21T17:25:32;43.85;;;28.33;;
27412;SDS011;14871;52.702;5.230;2023-02-21T17:28:00;36.40;;;23.20;;
27412;SDS011;14871;52.702;5.230;2023-02-21T17:30:26;36.63;;;22.88;;
27412;SDS011;14871;52.702;5.230;2023-02-21T17:32:52;33.83;;;23.17;;
27412;SDS011;14871;52.702;5.230;2023-02-21T17:35:18;38.00;;;25.63;;